Temple Bar Marina, Arizona
Current Conditions -  °F | °C
As of 2:35 AM on Wednesday 22 Oct 2014 (Local Time) from KBVU Reporting Station
Clear Clear  
Wind Chill: 63°   Ceiling: Unl
Heat Index: 63°   Visibility: 10mi
Dew Point: 25°   Wind: 0mph
Humidity: 24%   Direction: NA
Pressure: 29.91"   Gusts: NA
Location:  36.03°N, 114.31°W
Report Text: KBVU 220935Z AUTO 00000KT 10SM CLR 17/M04 A2991 RMK AO2
Loading
Personal Weather Stations






























Interactive Weather Map
Tropical Storm Tracking
New forecast layout! Learn more

10-Day Weather Forecast

Advertisements
Track Severe Weather on mobile